Duncan Falls, OH (43734)

5:25 AM EDT on July 28, 2015 (GMT -0400)
Washington TWP. | | Change Station
CLOSE
Current Station
Personal Weather Station
Location: Zanesville, OH
Elevation: 925 ft
Nearby Weather Stations

Elev 925 ft 39.96 °N, 81.92 °W | Updated 8 minutes ago

Clear
Clear
67.1 °F
Feels Like 67.1 °F
N
0.0
Wind Variable Wind from NW

Today
High -- | Low -- °F
--% Chance of Precip.
Yesterday
High -- | Low -- °F
Precip. -- in
6:22 AM 8:45 PM
Waxing Gibbous, 88% visible
Pressure 29.97 in
Visibility 8.0 miles
Clouds Clear
Dew Point 67 °F
Humidity 99%
Rainfall 0.00 in
Snow Depth Not available.
UV 0 out of 12
Pollen 6.30 out of 12
Air Quality Not available.
Flu Activity Not available.
METAR KZZV 280853Z AUTO 00000KT 8SM CLR 20/18 A3000 RMK AO2 SLP149 T02000178 55003

More Conditions Fewer Conditions

Pressure 29.97 in
Visibility 8.0 miles
Clouds Clear
Dew Point 67 °F
Humidity 99%
Rainfall 0.00 in
Snow Depth Not available.
UV 0 out of 12
Pollen 6.30 out of 12
Air Quality Not available.
Flu Activity Not available.
METAR KZZV 280853Z AUTO 00000KT 8SM CLR 20/18 A3000 RMK AO2 SLP149 T02000178 55003

More Conditions Fewer Conditions

10-Day Weather Forecast

×

Almanac

Astronomy

Jul. 28, 2015 Rise Set
Actual Time
Civil Twilight
Nautical Twilight
Astronomical Twilight
Moon
Length of Visible Light
Length of Day
Tomorrow will be .
, % of the Moon is Illuminated

Today's Extremes

State Highs State Lows

Community

WunderPhotos

Upload Photos

1,841,801 photos uploaded!

WunderBlogs® & News

Nearby

Air Quality

  Air Quality AQ Index Pollutant
Not available.

Snow Depth

Station Depth Elevation

Earthquake Activity

City Distance Mag. Time & Date
Minimum magnitude displayed is 2.5.

Coastal Water Temperatures

Place Temperature

Stations

Nearby Weather Stations

Station Location Temp. Windchill Dew Point Humidity Wind Precip. Elev Updated Type